sensor_id;sensor_type;location;lat;lon;timestamp;temperature;humidity
33207;DHT22;19565;46.602;11.534;2023-04-24T00:00:52;15.20;99.90
33207;DHT22;19565;46.602;11.534;2023-04-24T00:03:23;15.00;99.90
33207;DHT22;19565;46.602;11.534;2023-04-24T00:05:51;15.00;99.90
33207;DHT22;19565;46.602;11.534;2023-04-24T00:08:19;15.10;99.90
33207;DHT22;19565;46.602;11.534;2023-04-24T00:10:48;15.10;99.90
33207;DHT22;19565;46.602;11.534;2023-04-24T00:13:16;15.10;99.90
33207;DHT22;19565;46.602;11.534;2023-04-24T00:15:45;15.00;99.90
33207;DHT22;19565;46.602;11.534;2023-04-24T00:18:13;15.00;99.90
33207;DHT22;19565;46.602;11.534;2023-04-24T00:20:41;15.00;99.90
33207;DHT22;19565;46.602;11.534;2023-04-24T00:23:10;14.80;99.90
33207;DHT22;19565;46.602;11.534;2023-04-24T00:25:38;14.90;99.90
33207;DHT22;19565;46.602;11.534;2023-04-24T00:28:06;14.90;99.90
33207;DHT22;19565;46.602;11.534;2023-04-24T00:30:34;14.90;99.90
33207;DHT22;19565;46.602;11.534;2023-04-24T00:33:04;15.00;99.90
33207;DHT22;19565;46.602;11.534;2023-04-24T00:35:32;14.90;99.90
33207;DHT22;19565;46.602;11.534;2023-04-24T00:38:00;14.90;99.90
33207;DHT22;19565;46.602;11.534;2023-04-24T00:40:28;15.00;99.90
33207;DHT22;19565;46.602;11.534;2023-04-24T00:42:56;14.80;99.90
33207;DHT22;19565;46.602;11.534;2023-04-24T00:45:25;14.50;99.90
33207;DHT22;19565;46.602;11.534;2023-04-24T00:47:53;14.40;99.90
33207;DHT22;19565;46.602;11.534;2023-04-24T00:50:24;14.40;99.90
33207;DHT22;19565;46.602;11.534;2023-04-24T00:52:53;14.50;99.90
33207;DHT22;19565;46.602;11.534;2023-04-24T00:55:21;14.60;99.90
33207;DHT22;19565;46.602;11.534;2023-04-24T00:57:49;14.50;99.90
33207;DHT22;19565;46.602;11.534;2023-04-24T01:00:17;14.10;99.90
33207;DHT22;19565;46.602;11.534;2023-04-24T01:02:47;13.80;99.90
33207;DHT22;19565;46.602;11.534;2023-04-24T01:05:16;14.00;99.90
33207;DHT22;19565;46.602;11.534;2023-04-24T01:07:47;14.20;99.90
33207;DHT22;19565;46.602;11.534;2023-04-24T01:10:16;14.20;99.90
33207;DHT22;19565;46.602;11.534;2023-04-24T01:12:46;14.40;99.90
33207;DHT22;19565;46.602;11.534;2023-04-24T01:15:14;14.40;99.90
33207;DHT22;19565;46.602;11.534;2023-04-24T01:17:43;14.50;99.90
33207;DHT22;19565;46.602;11.534;2023-04-24T01:20:12;14.40;99.90
33207;DHT22;19565;46.602;11.534;2023-04-24T01:22:42;14.50;99.90
33207;DHT22;19565;46.602;11.534;2023-04-24T01:25:10;14.60;99.90
33207;DHT22;19565;46.602;11.534;2023-04-24T01:27:38;14.60;99.90
33207;DHT22;19565;46.602;11.534;2023-04-24T01:30:07;14.50;99.90
33207;DHT22;19565;46.602;11.534;2023-04-24T01:32:36;14.60;99.90
33207;DHT22;19565;46.602;11.534;2023-04-24T01:35:06;14.60;99.90
33207;DHT22;19565;46.602;11.534;2023-04-24T01:37:34;14.50;99.90
33207;DHT22;19565;46.602;11.534;2023-04-24T01:40:06;14.40;99.90
33207;DHT22;19565;46.602;11.534;2023-04-24T01:42:35;14.10;99.90
33207;DHT22;19565;46.602;11.534;2023-04-24T01:45:04;13.90;99.90
33207;DHT22;19565;46.602;11.534;2023-04-24T01:47:32;13.90;99.90
33207;DHT22;19565;46.602;11.534;2023-04-24T01:50:00;14.00;99.90
33207;DHT22;19565;46.602;11.534;2023-04-24T01:52:28;13.70;99.90
33207;DHT22;19565;46.602;11.534;2023-04-24T01:54:59;13.40;99.90
33207;DHT22;19565;46.602;11.534;2023-04-24T01:57:29;13.20;99.90
33207;DHT22;19565;46.602;11.534;2023-04-24T01:59:58;13.10;99.90
33207;DHT22;19565;46.602;11.534;2023-04-24T02:02:26;13.00;99.90
33207;DHT22;19565;46.602;11.534;2023-04-24T02:04:55;13.10;99.90
33207;DHT22;19565;46.602;11.534;2023-04-24T02:07:23;13.10;99.90
33207;DHT22;19565;46.602;11.534;2023-04-24T02:09:51;13.20;99.90
33207;DHT22;19565;46.602;11.534;2023-04-24T02:12:19;13.10;99.90
33207;DHT22;19565;46.602;11.534;2023-04-24T02:14:49;13.00;99.90
33207;DHT22;19565;46.602;11.534;2023-04-24T02:17:17;13.00;99.90
33207;DHT22;19565;46.602;11.534;2023-04-24T02:19:45;12.90;99.90
33207;DHT22;19565;46.602;11.534;2023-04-24T02:22:13;12.80;99.90
33207;DHT22;19565;46.602;11.534;2023-04-24T02:24:41;12.70;99.90
33207;DHT22;19565;46.602;11.534;2023-04-24T02:27:09;12.70;99.90
33207;DHT22;19565;46.602;11.534;2023-04-24T02:29:38;12.70;99.90
33207;DHT22;19565;46.602;11.534;2023-04-24T02:32:08;12.60;99.90
33207;DHT22;19565;46.602;11.534;2023-04-24T02:34:38;12.60;99.90
33207;DHT22;19565;46.602;11.534;2023-04-24T02:37:07;12.70;99.90
33207;DHT22;19565;46.602;11.534;2023-04-24T02:39:35;12.80;99.90
33207;DHT22;19565;46.602;11.534;2023-04-24T02:42:03;13.00;99.90
33207;DHT22;19565;46.602;11.534;2023-04-24T02:44:31;13.10;99.90
33207;DHT22;19565;46.602;11.534;2023-04-24T02:46:59;13.20;99.90
33207;DHT22;19565;46.602;11.534;2023-04-24T02:49:28;13.20;99.90
33207;DHT22;19565;46.602;11.534;2023-04-24T02:51:56;13.40;99.90
33207;DHT22;19565;46.602;11.534;2023-04-24T02:54:24;13.50;99.90
33207;DHT22;19565;46.602;11.534;2023-04-24T02:56:52;13.50;99.90
33207;DHT22;19565;46.602;11.534;2023-04-24T02:59:20;13.50;99.90
33207;DHT22;19565;46.602;11.534;2023-04-24T03:01:48;13.50;99.90
33207;DHT22;19565;46.602;11.534;2023-04-24T03:04:16;13.60;99.90
33207;DHT22;19565;46.602;11.534;2023-04-24T03:06:48;13.60;99.90
33207;DHT22;19565;46.602;11.534;2023-04-24T03:09:18;13.50;99.90
33207;DHT22;19565;46.602;11.534;2023-04-24T03:11:46;13.50;99.90
33207;DHT22;19565;46.602;11.534;2023-04-24T03:14:15;13.60;99.90
33207;DHT22;19565;46.602;11.534;2023-04-24T03:16:43;13.60;99.90
33207;DHT22;19565;46.602;11.534;2023-04-24T03:19:11;13.40;99.90
33207;DHT22;19565;46.602;11.534;2023-04-24T03:21:39;13.30;99.90
33207;DHT22;19565;46.602;11.534;2023-04-24T03:24:09;13.30;99.90
33207;DHT22;19565;46.602;11.534;2023-04-24T03:26:37;13.40;99.90
33207;DHT22;19565;46.602;11.534;2023-04-24T03:29:04;13.50;99.90
33207;DHT22;19565;46.602;11.534;2023-04-24T03:31:32;13.70;99.90
33207;DHT22;19565;46.602;11.534;2023-04-24T03:34:01;13.70;99.90
33207;DHT22;19565;46.602;11.534;2023-04-24T03:36:29;13.60;99.90
33207;DHT22;19565;46.602;11.534;2023-04-24T03:38:57;13.40;99.90
33207;DHT22;19565;46.602;11.534;2023-04-24T03:41:27;13.20;99.90
33207;DHT22;19565;46.602;11.534;2023-04-24T03:43:55;13.20;99.90
33207;DHT22;19565;46.602;11.534;2023-04-24T03:46:23;13.20;99.90
33207;DHT22;19565;46.602;11.534;2023-04-24T03:48:51;13.20;99.90
33207;DHT22;19565;46.602;11.534;2023-04-24T03:51:19;13.30;99.90
33207;DHT22;19565;46.602;11.534;2023-04-24T03:53:48;13.10;99.90
33207;DHT22;19565;46.602;11.534;2023-04-24T03:56:16;13.10;99.90
33207;DHT22;19565;46.602;11.534;2023-04-24T03:58:46;13.10;99.90
33207;DHT22;19565;46.602;11.534;2023-04-24T04:01:14;13.10;99.90
33207;DHT22;19565;46.602;11.534;2023-04-24T04:03:42;12.80;99.90
33207;DHT22;19565;46.602;11.534;2023-04-24T04:06:11;12.50;99.90
33207;DHT22;19565;46.602;11.534;2023-04-24T04:08:39;12.30;99.90
33207;DHT22;19565;46.602;11.534;2023-04-24T04:11:07;12.10;99.90
33207;DHT22;19565;46.602;11.534;2023-04-24T04:13:35;12.10;99.90
33207;DHT22;19565;46.602;11.534;2023-04-24T04:16:05;12.10;99.90
33207;DHT22;19565;46.602;11.534;2023-04-24T04:18:33;12.10;99.90
33207;DHT22;19565;46.602;11.534;2023-04-24T04:21:02;12.10;99.90
33207;DHT22;19565;46.602;11.534;2023-04-24T04:23:29;12.30;99.90
33207;DHT22;19565;46.602;11.534;2023-04-24T04:25:58;12.30;99.90
33207;DHT22;19565;46.602;11.534;2023-04-24T04:28:26;12.30;99.90
33207;DHT22;19565;46.602;11.534;2023-04-24T04:30:54;12.20;99.90
33207;DHT22;19565;46.602;11.534;2023-04-24T04:33:25;12.10;99.90
33207;DHT22;19565;46.602;11.534;2023-04-24T04:35:53;12.30;99.90
33207;DHT22;19565;46.602;11.534;2023-04-24T04:38:23;12.50;99.90
33207;DHT22;19565;46.602;11.534;2023-04-24T04:40:53;12.70;99.90
33207;DHT22;19565;46.602;11.534;2023-04-24T04:43:23;12.90;99.90
33207;DHT22;19565;46.602;11.534;2023-04-24T04:45:52;12.90;99.90
33207;DHT22;19565;46.602;11.534;2023-04-24T04:48:21;13.00;99.90
33207;DHT22;19565;46.602;11.534;2023-04-24T04:50:50;13.00;99.90
33207;DHT22;19565;46.602;11.534;2023-04-24T04:53:18;13.00;99.90
33207;DHT22;19565;46.602;11.534;2023-04-24T04:55:46;13.00;99.90
33207;DHT22;19565;46.602;11.534;2023-04-24T04:58:15;13.00;99.90
33207;DHT22;19565;46.602;11.534;2023-04-24T05:00:42;12.90;99.90
33207;DHT22;19565;46.602;11.534;2023-04-24T05:03:10;13.00;99.90
33207;DHT22;19565;46.602;11.534;2023-04-24T05:05:44;13.00;99.90
33207;DHT22;19565;46.602;11.534;2023-04-24T05:08:14;13.00;99.90
33207;DHT22;19565;46.602;11.534;2023-04-24T05:10:52;13.00;99.90
33207;DHT22;19565;46.602;11.534;2023-04-24T05:13:20;13.00;99.90
33207;DHT22;19565;46.602;11.534;2023-04-24T05:16:01;13.00;99.90
33207;DHT22;19565;46.602;11.534;2023-04-24T05:18:29;12.90;99.90
33207;DHT22;19565;46.602;11.534;2023-04-24T05:20:57;13.00;99.90
33207;DHT22;19565;46.602;11.534;2023-04-24T05:23:27;12.90;99.90
33207;DHT22;19565;46.602;11.534;2023-04-24T05:25:55;13.00;99.90
33207;DHT22;19565;46.602;11.534;2023-04-24T05:28:23;13.00;99.90
33207;DHT22;19565;46.602;11.534;2023-04-24T05:30:55;12.90;99.90
33207;DHT22;19565;46.602;11.534;2023-04-24T05:33:23;13.00;99.90
33207;DHT22;19565;46.602;11.534;2023-04-24T05:35:51;13.00;99.90
33207;DHT22;19565;46.602;11.534;2023-04-24T05:38:19;13.00;99.90
33207;DHT22;19565;46.602;11.534;2023-04-24T05:40:49;12.90;99.90
33207;DHT22;19565;46.602;11.534;2023-04-24T05:43:17;12.90;99.90
33207;DHT22;19565;46.602;11.534;2023-04-24T05:45:45;13.00;99.90
33207;DHT22;19565;46.602;11.534;2023-04-24T05:48:13;12.90;99.90
33207;DHT22;19565;46.602;11.534;2023-04-24T05:50:42;13.00;99.90
33207;DHT22;19565;46.602;11.534;2023-04-24T05:53:10;12.90;99.90
33207;DHT22;19565;46.602;11.534;2023-04-24T05:55:38;12.90;99.90
33207;DHT22;19565;46.602;11.534;2023-04-24T05:58:07;13.00;99.90
33207;DHT22;19565;46.602;11.534;2023-04-24T06:00:35;13.00;99.90
33207;DHT22;19565;46.602;11.534;2023-04-24T06:03:03;13.00;99.90
33207;DHT22;19565;46.602;11.534;2023-04-24T06:05:31;13.00;99.90
33207;DHT22;19565;46.602;11.534;2023-04-24T06:07:59;13.00;99.90
33207;DHT22;19565;46.602;11.534;2023-04-24T06:10:27;13.00;99.90
33207;DHT22;19565;46.602;11.534;2023-04-24T06:12:55;13.00;99.90
33207;DHT22;19565;46.602;11.534;2023-04-24T06:15:30;13.00;99.90
33207;DHT22;19565;46.602;11.534;2023-04-24T06:17:58;13.00;99.90
33207;DHT22;19565;46.602;11.534;2023-04-24T06:20:26;13.00;99.90
33207;DHT22;19565;46.602;11.534;2023-04-24T06:22:54;13.00;99.90
33207;DHT22;19565;46.602;11.534;2023-04-24T06:25:24;13.00;99.90
33207;DHT22;19565;46.602;11.534;2023-04-24T06:27:53;13.10;99.90
33207;DHT22;19565;46.602;11.534;2023-04-24T06:30:21;13.10;99.90
33207;DHT22;19565;46.602;11.534;2023-04-24T06:32:50;13.10;99.90
33207;DHT22;19565;46.602;11.534;2023-04-24T06:35:19;13.10;99.90
33207;DHT22;19565;46.602;11.534;2023-04-24T06:37:47;13.00;99.90
33207;DHT22;19565;46.602;11.534;2023-04-24T06:40:15;13.00;99.90
33207;DHT22;19565;46.602;11.534;2023-04-24T06:42:45;12.90;99.90
33207;DHT22;19565;46.602;11.534;2023-04-24T06:45:13;12.90;99.90
33207;DHT22;19565;46.602;11.534;2023-04-24T06:47:41;12.90;99.90
33207;DHT22;19565;46.602;11.534;2023-04-24T06:50:10;12.90;99.90
33207;DHT22;19565;46.602;11.534;2023-04-24T06:52:40;12.90;99.90
33207;DHT22;19565;46.602;11.534;2023-04-24T06:55:08;12.80;99.90
33207;DHT22;19565;46.602;11.534;2023-04-24T06:57:37;12.90;99.90
33207;DHT22;19565;46.602;11.534;2023-04-24T07:00:07;12.90;99.90
33207;DHT22;19565;46.602;11.534;2023-04-24T07:02:36;12.90;99.90
33207;DHT22;19565;46.602;11.534;2023-04-24T07:05:04;12.90;99.90
33207;DHT22;19565;46.602;11.534;2023-04-24T07:07:34;12.90;99.90
33207;DHT22;19565;46.602;11.534;2023-04-24T07:10:05;12.90;99.90
33207;DHT22;19565;46.602;11.534;2023-04-24T07:12:35;12.90;99.90
33207;DHT22;19565;46.602;11.534;2023-04-24T07:15:05;12.90;99.90
33207;DHT22;19565;46.602;11.534;2023-04-24T07:17:34;12.90;99.90
33207;DHT22;19565;46.602;11.534;2023-04-24T07:20:03;13.00;99.90
33207;DHT22;19565;46.602;11.534;2023-04-24T07:22:32;13.00;99.90
33207;DHT22;19565;46.602;11.534;2023-04-24T07:25:01;13.00;99.90
33207;DHT22;19565;46.602;11.534;2023-04-24T07:27:29;13.00;99.90
33207;DHT22;19565;46.602;11.534;2023-04-24T07:30:01;13.00;99.90
33207;DHT22;19565;46.602;11.534;2023-04-24T07:32:29;13.00;99.90
33207;DHT22;19565;46.602;11.534;2023-04-24T07:34:57;13.00;99.90
33207;DHT22;19565;46.602;11.534;2023-04-24T07:37:25;13.10;99.90
33207;DHT22;19565;46.602;11.534;2023-04-24T07:39:53;13.10;99.90
33207;DHT22;19565;46.602;11.534;2023-04-24T07:42:22;13.10;99.90
33207;DHT22;19565;46.602;11.534;2023-04-24T07:44:50;13.20;99.90
33207;DHT22;19565;46.602;11.534;2023-04-24T07:47:18;13.20;99.90
33207;DHT22;19565;46.602;11.534;2023-04-24T07:49:46;13.30;99.90
33207;DHT22;19565;46.602;11.534;2023-04-24T07:52:14;13.30;99.90
33207;DHT22;19565;46.602;11.534;2023-04-24T07:54:42;13.30;99.90
33207;DHT22;19565;46.602;11.534;2023-04-24T07:57:11;13.30;99.90
33207;DHT22;19565;46.602;11.534;2023-04-24T07:59:40;13.30;99.90
33207;DHT22;19565;46.602;11.534;2023-04-24T08:02:09;13.30;99.90
33207;DHT22;19565;46.602;11.534;2023-04-24T08:04:37;13.40;99.90
33207;DHT22;19565;46.602;11.534;2023-04-24T08:07:06;13.30;99.90
33207;DHT22;19565;46.602;11.534;2023-04-24T08:09:34;13.30;99.90
33207;DHT22;19565;46.602;11.534;2023-04-24T08:12:02;13.40;99.90
33207;DHT22;19565;46.602;11.534;2023-04-24T08:14:30;13.50;99.90
33207;DHT22;19565;46.602;11.534;2023-04-24T08:17:00;13.60;99.90
33207;DHT22;19565;46.602;11.534;2023-04-24T08:19:29;13.60;99.90
33207;DHT22;19565;46.602;11.534;2023-04-24T08:21:57;13.60;99.90
33207;DHT22;19565;46.602;11.534;2023-04-24T08:24:25;13.60;99.90
33207;DHT22;19565;46.602;11.534;2023-04-24T08:26:53;13.50;99.90
33207;DHT22;19565;46.602;11.534;2023-04-24T08:29:23;13.40;99.90
33207;DHT22;19565;46.602;11.534;2023-04-24T08:31:51;13.40;99.90
33207;DHT22;19565;46.602;11.534;2023-04-24T08:34:22;13.10;99.90
33207;DHT22;19565;46.602;11.534;2023-04-24T08:36:50;12.70;99.90
33207;DHT22;19565;46.602;11.534;2023-04-24T08:39:18;12.70;99.90
33207;DHT22;19565;46.602;11.534;2023-04-24T08:41:48;12.80;99.90
33207;DHT22;19565;46.602;11.534;2023-04-24T08:44:16;12.80;99.90
33207;DHT22;19565;46.602;11.534;2023-04-24T08:46:45;12.70;99.90
33207;DHT22;19565;46.602;11.534;2023-04-24T08:49:15;12.50;99.90
33207;DHT22;19565;46.602;11.534;2023-04-24T08:51:45;12.30;99.90
33207;DHT22;19565;46.602;11.534;2023-04-24T08:54:14;12.30;99.90
33207;DHT22;19565;46.602;11.534;2023-04-24T08:56:44;12.40;99.90
33207;DHT22;19565;46.602;11.534;2023-04-24T08:59:12;12.40;99.90
33207;DHT22;19565;46.602;11.534;2023-04-24T09:01:41;12.50;99.90
33207;DHT22;19565;46.602;11.534;2023-04-24T09:04:09;12.70;99.90
33207;DHT22;19565;46.602;11.534;2023-04-24T09:06:40;12.60;99.90
33207;DHT22;19565;46.602;11.534;2023-04-24T09:09:10;12.50;99.90
33207;DHT22;19565;46.602;11.534;2023-04-24T09:11:39;12.60;99.90
33207;DHT22;19565;46.602;11.534;2023-04-24T09:14:09;12.60;99.90
33207;DHT22;19565;46.602;11.534;2023-04-24T09:16:37;12.70;99.90
33207;DHT22;19565;46.602;11.534;2023-04-24T09:19:05;12.60;99.90
33207;DHT22;19565;46.602;11.534;2023-04-24T09:21:34;12.60;99.90
33207;DHT22;19565;46.602;11.534;2023-04-24T09:24:05;12.70;99.90
33207;DHT22;19565;46.602;11.534;2023-04-24T09:26:36;12.70;99.90
33207;DHT22;19565;46.602;11.534;2023-04-24T09:29:04;12.70;99.90
33207;DHT22;19565;46.602;11.534;2023-04-24T09:31:32;12.80;99.90
33207;DHT22;19565;46.602;11.534;2023-04-24T09:34:02;12.80;99.90
33207;DHT22;19565;46.602;11.534;2023-04-24T09:36:35;12.50;99.90
33207;DHT22;19565;46.602;11.534;2023-04-24T09:39:06;12.70;99.90
33207;DHT22;19565;46.602;11.534;2023-04-24T09:41:45;12.90;99.90
33207;DHT22;19565;46.602;11.534;2023-04-24T09:44:15;12.90;99.90
33207;DHT22;19565;46.602;11.534;2023-04-24T09:46:44;12.90;99.90
33207;DHT22;19565;46.602;11.534;2023-04-24T09:49:14;12.90;99.90
33207;DHT22;19565;46.602;11.534;2023-04-24T09:51:43;12.90;99.90
33207;DHT22;19565;46.602;11.534;2023-04-24T09:54:14;12.90;99.90
33207;DHT22;19565;46.602;11.534;2023-04-24T09:56:46;13.00;99.90
33207;DHT22;19565;46.602;11.534;2023-04-24T09:59:15;13.20;99.90
33207;DHT22;19565;46.602;11.534;2023-04-24T10:01:43;13.20;99.90
33207;DHT22;19565;46.602;11.534;2023-04-24T10:04:16;13.40;99.90
33207;DHT22;19565;46.602;11.534;2023-04-24T10:06:46;13.50;99.90
33207;DHT22;19565;46.602;11.534;2023-04-24T10:09:15;13.60;99.90
33207;DHT22;19565;46.602;11.534;2023-04-24T10:11:46;13.60;99.90
33207;DHT22;19565;46.602;11.534;2023-04-24T10:14:16;13.40;99.90
33207;DHT22;19565;46.602;11.534;2023-04-24T10:16:45;13.40;99.90
33207;DHT22;19565;46.602;11.534;2023-04-24T10:19:14;13.40;99.90
33207;DHT22;19565;46.602;11.534;2023-04-24T10:21:43;13.40;99.90
33207;DHT22;19565;46.602;11.534;2023-04-24T10:24:13;13.50;99.90
33207;DHT22;19565;46.602;11.534;2023-04-24T10:26:43;13.50;99.90
33207;DHT22;19565;46.602;11.534;2023-04-24T10:29:13;13.60;99.90
33207;DHT22;19565;46.602;11.534;2023-04-24T10:31:42;13.70;99.90
33207;DHT22;19565;46.602;11.534;2023-04-24T10:34:15;13.70;99.90
33207;DHT22;19565;46.602;11.534;2023-04-24T10:36:47;13.90;99.90
33207;DHT22;19565;46.602;11.534;2023-04-24T10:39:16;13.90;99.90
33207;DHT22;19565;46.602;11.534;2023-04-24T10:41:53;14.00;99.90
33207;DHT22;19565;46.602;11.534;2023-04-24T10:44:25;14.00;99.60
33207;DHT22;19565;46.602;11.534;2023-04-24T10:47:03;14.10;99.20
33207;DHT22;19565;46.602;11.534;2023-04-24T10:49:32;14.10;99.50
33207;DHT22;19565;46.602;11.534;2023-04-24T10:52:02;14.30;99.70
33207;DHT22;19565;46.602;11.534;2023-04-24T10:54:35;14.50;99.30
33207;DHT22;19565;46.602;11.534;2023-04-24T10:57:36;14.60;99.00
33207;DHT22;19565;46.602;11.534;2023-04-24T11:00:15;14.80;99.00
33207;DHT22;19565;46.602;11.534;2023-04-24T11:02:45;14.90;98.80
33207;DHT22;19565;46.602;11.534;2023-04-24T11:05:18;15.00;97.90
33207;DHT22;19565;46.602;11.534;2023-04-24T11:08:23;14.90;97.20
33207;DHT22;19565;46.602;11.534;2023-04-24T11:10:58;15.00;97.60
33207;DHT22;19565;46.602;11.534;2023-04-24T11:13:27;15.20;97.60
33207;DHT22;19565;46.602;11.534;2023-04-24T11:16:20;15.20;96.90
33207;DHT22;19565;46.602;11.534;2023-04-24T11:18:51;15.30;96.40
33207;DHT22;19565;46.602;11.534;2023-04-24T11:21:22;15.50;96.30
33207;DHT22;19565;46.602;11.534;2023-04-24T11:23:50;15.60;95.60
33207;DHT22;19565;46.602;11.534;2023-04-24T11:26:19;15.60;95.50
33207;DHT22;19565;46.602;11.534;2023-04-24T11:28:51;15.70;95.20
33207;DHT22;19565;46.602;11.534;2023-04-24T11:31:36;15.70;93.90
33207;DHT22;19565;46.602;11.534;2023-04-24T11:34:08;15.80;93.70
33207;DHT22;19565;46.602;11.534;2023-04-24T11:36:37;15.70;93.40
33207;DHT22;19565;46.602;11.534;2023-04-24T11:39:05;15.70;93.70
33207;DHT22;19565;46.602;11.534;2023-04-24T11:41:34;15.60;94.00
33207;DHT22;19565;46.602;11.534;2023-04-24T11:44:03;15.60;94.00
33207;DHT22;19565;46.602;11.534;2023-04-24T11:46:33;15.60;93.20
33207;DHT22;19565;46.602;11.534;2023-04-24T11:49:03;15.70;93.40
33207;DHT22;19565;46.602;11.534;2023-04-24T11:51:31;15.80;93.40
33207;DHT22;19565;46.602;11.534;2023-04-24T11:54:13;15.90;92.90
33207;DHT22;19565;46.602;11.534;2023-04-24T11:56:44;15.80;92.90
33207;DHT22;19565;46.602;11.534;2023-04-24T11:59:13;15.90;92.30
33207;DHT22;19565;46.602;11.534;2023-04-24T12:01:44;15.80;91.80
33207;DHT22;19565;46.602;11.534;2023-04-24T12:04:17;15.90;92.40
33207;DHT22;19565;46.602;11.534;2023-04-24T12:07:01;15.90;92.00
33207;DHT22;19565;46.602;11.534;2023-04-24T12:09:39;15.90;92.50
33207;DHT22;19565;46.602;11.534;2023-04-24T12:12:08;16.00;92.80
33207;DHT22;19565;46.602;11.534;2023-04-24T12:14:43;16.10;92.40
33207;DHT22;19565;46.602;11.534;2023-04-24T12:17:11;16.10;92.50
33207;DHT22;19565;46.602;11.534;2023-04-24T12:19:46;16.10;92.50
33207;DHT22;19565;46.602;11.534;2023-04-24T12:22:15;16.10;92.20
33207;DHT22;19565;46.602;11.534;2023-04-24T12:25:00;16.30;92.50
33207;DHT22;19565;46.602;11.534;2023-04-24T12:27:30;16.40;92.70
33207;DHT22;19565;46.602;11.534;2023-04-24T12:30:01;16.50;92.10
33207;DHT22;19565;46.602;11.534;2023-04-24T12:32:29;16.50;90.40
33207;DHT22;19565;46.602;11.534;2023-04-24T12:34:59;16.50;90.70
33207;DHT22;19565;46.602;11.534;2023-04-24T12:37:32;16.50;90.00
33207;DHT22;19565;46.602;11.534;2023-04-24T12:40:06;16.50;90.50
33207;DHT22;19565;46.602;11.534;2023-04-24T12:42:35;16.60;89.40
33207;DHT22;19565;46.602;11.534;2023-04-24T12:45:05;16.60;89.90
33207;DHT22;19565;46.602;11.534;2023-04-24T12:47:35;16.70;89.30
33207;DHT22;19565;46.602;11.534;2023-04-24T12:50:06;16.60;86.60
33207;DHT22;19565;46.602;11.534;2023-04-24T12:52:34;16.60;85.20
33207;DHT22;19565;46.602;11.534;2023-04-24T12:55:03;16.60;85.60
33207;DHT22;19565;46.602;11.534;2023-04-24T12:57:31;16.60;83.00
33207;DHT22;19565;46.602;11.534;2023-04-24T12:59:59;16.70;85.10
33207;DHT22;19565;46.602;11.534;2023-04-24T13:02:28;16.70;85.90
33207;DHT22;19565;46.602;11.534;2023-04-24T13:04:57;16.80;87.10
33207;DHT22;19565;46.602;11.534;2023-04-24T13:07:27;16.90;86.40
33207;DHT22;19565;46.602;11.534;2023-04-24T13:09:56;17.00;85.70
33207;DHT22;19565;46.602;11.534;2023-04-24T13:12:24;17.10;85.70
33207;DHT22;19565;46.602;11.534;2023-04-24T13:14:53;17.10;86.00
33207;DHT22;19565;46.602;11.534;2023-04-24T13:17:21;17.20;86.60
33207;DHT22;19565;46.602;11.534;2023-04-24T13:19:50;17.10;82.40
33207;DHT22;19565;46.602;11.534;2023-04-24T13:22:20;17.10;87.10
33207;DHT22;19565;46.602;11.534;2023-04-24T13:24:49;17.10;90.10
33207;DHT22;19565;46.602;11.534;2023-04-24T13:27:17;17.00;90.70
33207;DHT22;19565;46.602;11.534;2023-04-24T13:29:45;17.00;90.90
33207;DHT22;19565;46.602;11.534;2023-04-24T13:32:13;17.00;91.10
33207;DHT22;19565;46.602;11.534;2023-04-24T13:34:42;16.90;91.30
33207;DHT22;19565;46.602;11.534;2023-04-24T13:37:10;16.90;91.30
33207;DHT22;19565;46.602;11.534;2023-04-24T13:39:38;16.90;91.40
33207;DHT22;19565;46.602;11.534;2023-04-24T13:42:09;17.00;91.50
33207;DHT22;19565;46.602;11.534;2023-04-24T13:44:37;17.20;92.00
33207;DHT22;19565;46.602;11.534;2023-04-24T13:47:05;17.30;92.00
33207;DHT22;19565;46.602;11.534;2023-04-24T13:49:33;17.40;91.40
33207;DHT22;19565;46.602;11.534;2023-04-24T13:52:02;17.40;90.30
33207;DHT22;19565;46.602;11.534;2023-04-24T13:54:30;17.50;89.60
33207;DHT22;19565;46.602;11.534;2023-04-24T13:56:58;17.50;89.80
33207;DHT22;19565;46.602;11.534;2023-04-24T13:59:28;17.60;88.70
33207;DHT22;19565;46.602;11.534;2023-04-24T14:01:56;17.60;87.80
33207;DHT22;19565;46.602;11.534;2023-04-24T14:04:24;17.70;87.90
33207;DHT22;19565;46.602;11.534;2023-04-24T14:06:53;17.70;86.70
33207;DHT22;19565;46.602;11.534;2023-04-24T14:09:21;17.60;86.10
33207;DHT22;19565;46.602;11.534;2023-04-24T14:11:49;17.60;86.40
33207;DHT22;19565;46.602;11.534;2023-04-24T14:14:17;17.60;86.60
33207;DHT22;19565;46.602;11.534;2023-04-24T14:16:46;17.60;85.90
33207;DHT22;19565;46.602;11.534;2023-04-24T14:19:14;17.70;87.50
33207;DHT22;19565;46.602;11.534;2023-04-24T14:21:42;17.80;85.60
33207;DHT22;19565;46.602;11.534;2023-04-24T14:24:10;17.90;83.50
33207;DHT22;19565;46.602;11.534;2023-04-24T14:26:38;18.00;80.10
33207;DHT22;19565;46.602;11.534;2023-04-24T14:29:06;18.10;79.40
33207;DHT22;19565;46.602;11.534;2023-04-24T14:31:40;18.30;83.70
33207;DHT22;19565;46.602;11.534;2023-04-24T14:34:10;18.40;81.30
33207;DHT22;19565;46.602;11.534;2023-04-24T14:36:38;18.60;75.10
33207;DHT22;19565;46.602;11.534;2023-04-24T14:39:06;18.50;62.70
33207;DHT22;19565;46.602;11.534;2023-04-24T14:41:34;18.40;63.20
33207;DHT22;19565;46.602;11.534;2023-04-24T14:44:04;18.40;73.40
33207;DHT22;19565;46.602;11.534;2023-04-24T14:46:32;18.20;79.20
33207;DHT22;19565;46.602;11.534;2023-04-24T14:49:00;18.20;81.60
33207;DHT22;19565;46.602;11.534;2023-04-24T14:51:30;18.70;81.80
33207;DHT22;19565;46.602;11.534;2023-04-24T14:53:58;19.50;80.00
33207;DHT22;19565;46.602;11.534;2023-04-24T14:56:26;20.40;76.00
33207;DHT22;19565;46.602;11.534;2023-04-24T14:58:55;21.10;74.30
33207;DHT22;19565;46.602;11.534;2023-04-24T15:01:23;21.30;73.30
33207;DHT22;19565;46.602;11.534;2023-04-24T15:03:52;21.10;72.60
33207;DHT22;19565;46.602;11.534;2023-04-24T15:06:20;21.10;70.90
33207;DHT22;19565;46.602;11.534;2023-04-24T15:08:50;21.00;70.00
33207;DHT22;19565;46.602;11.534;2023-04-24T15:11:18;20.80;58.50
33207;DHT22;19565;46.602;11.534;2023-04-24T15:13:46;20.40;49.30
33207;DHT22;19565;46.602;11.534;2023-04-24T15:16:15;20.50;46.50
33207;DHT22;19565;46.602;11.534;2023-04-24T15:18:43;20.60;47.50
33207;DHT22;19565;46.602;11.534;2023-04-24T15:21:11;20.10;43.50
33207;DHT22;19565;46.602;11.534;2023-04-24T15:23:39;19.60;45.70
33207;DHT22;19565;46.602;11.534;2023-04-24T15:26:09;19.20;46.90
33207;DHT22;19565;46.602;11.534;2023-04-24T15:28:37;18.80;47.30